Time;durP1;ratioP1;P1;durP2;ratioP2;P2;SDS_P1;SDS_P2;PMS_P1;PMS_P2;Temp;Humidity;BMP_temperature;BMP_pressure;BME280_temperature;BME280_humidity;BME280_pressure;Samples;Min_cycle;Max_cycle;Signal;HPM_P1;HPM_P2
2021/06/19 00:02:05;;;;;;;3.90;3.50;;;23.70;97.40;;;;;;5034562;28;20188;-67
2021/06/19 00:04:31;;;;;;;5.97;3.67;;;23.70;97.60;;;;;;5035324;28;20431;-66
2021/06/19 00:07:04;;;;;;;6.90;3.50;;;23.70;97.40;;;;;;5034576;28;20179;-67
2021/06/19 00:09:31;;;;;;;5.33;2.70;;;23.80;97.00;;;;;;5014756;28;20441;-66
2021/06/19 00:11:57;;;;;;;3.57;2.97;;;23.80;96.80;;;;;;5015185;28;20972;-64
2021/06/19 00:14:23;;;;;;;3.53;3.13;;;23.80;96.70;;;;;;5049903;28;20429;-66
2021/06/19 00:16:49;;;;;;;7.47;3.43;;;23.80;96.60;;;;;;5035093;28;20491;-66
2021/06/19 00:19:15;;;;;;;5.20;2.80;;;23.90;96.40;;;;;;5034278;28;20344;-67
2021/06/19 00:21:41;;;;;;;2.77;2.10;;;23.80;96.30;;;;;;5034671;28;20467;-66
2021/06/19 00:24:11;;;;;;;5.37;3.20;;;23.90;96.30;;;;;;5034488;28;20470;-65
2021/06/19 00:26:38;;;;;;;4.53;2.83;;;23.90;96.10;;;;;;5034723;28;20429;-67
2021/06/19 00:29:04;;;;;;;4.33;2.60;;;23.90;96.10;;;;;;5034053;28;20465;-66
2021/06/19 00:31:30;;;;;;;3.43;2.67;;;23.90;96.20;;;;;;5034793;28;20502;-67
2021/06/19 00:33:56;;;;;;;3.40;2.50;;;23.90;96.30;;;;;;5034324;28;20178;-66
2021/06/19 00:36:22;;;;;;;3.53;2.53;;;23.90;96.10;;;;;;5034359;28;20474;-65
2021/06/19 00:38:47;;;;;;;5.80;3.10;;;23.90;95.10;;;;;;5033921;28;20445;-64
2021/06/19 00:41:13;;;;;;;3.63;3.10;;;24.00;95.80;;;;;;5034667;28;20265;-66
2021/06/19 00:43:39;;;;;;;6.50;3.87;;;24.10;96.60;;;;;;5034090;28;20176;-65
2021/06/19 00:46:04;;;;;;;2.87;2.67;;;24.10;97.10;;;;;;5035887;28;20185;-65
2021/06/19 00:48:30;;;;;;;4.20;3.17;;;24.10;97.00;;;;;;5033076;28;20219;-64
2021/06/19 00:50:56;;;;;;;5.80;3.33;;;24.00;97.30;;;;;;5034802;28;20185;-66
2021/06/19 00:53:21;;;;;;;6.33;3.50;;;24.00;97.20;;;;;;5034143;28;20213;-65
2021/06/19 00:55:47;;;;;;;5.63;3.23;;;24.00;97.10;;;;;;5034115;28;20703;-64
2021/06/19 00:58:13;;;;;;;5.63;3.57;;;24.00;97.20;;;;;;5032147;28;20581;-64
2021/06/19 01:00:39;;;;;;;6.07;3.30;;;24.00;97.40;;;;;;5033404;28;20180;-65
2021/06/19 01:03:05;;;;;;;3.47;3.03;;;23.90;97.10;;;;;;5033997;28;20525;-65
2021/06/19 01:05:31;;;;;;;5.57;3.40;;;23.90;96.90;;;;;;5034456;28;20175;-65
2021/06/19 01:07:59;;;;;;;7.23;3.67;;;23.90;96.90;;;;;;5033357;28;20440;-65
2021/06/19 01:10:28;;;;;;;5.70;2.80;;;23.90;96.70;;;;;;5033812;28;20446;-65
2021/06/19 01:12:55;;;;;;;4.70;3.30;;;23.90;96.70;;;;;;5033726;28;20570;-65
2021/06/19 01:15:22;;;;;;;5.20;3.57;;;23.90;96.60;;;;;;5033532;28;20434;-65
2021/06/19 01:17:48;;;;;;;5.90;4.03;;;23.90;96.10;;;;;;5033185;28;20877;-64
2021/06/19 01:20:17;;;;;;;4.90;3.00;;;24.00;96.50;;;;;;5033594;28;20470;-65
2021/06/19 01:22:46;;;;;;;5.10;3.23;;;24.00;96.40;;;;;;5033407;28;20506;-66
2021/06/19 01:25:18;;;;;;;7.07;3.00;;;24.00;96.30;;;;;;5033100;28;20453;-65
2021/06/19 01:27:44;;;;;;;4.20;2.83;;;24.10;96.10;;;;;;5031801;28;20430;-64
2021/06/19 01:30:10;;;;;;;4.40;2.47;;;24.20;96.10;;;;;;5033697;28;20418;-64
2021/06/19 01:32:38;;;;;;;6.27;2.83;;;24.20;96.30;;;;;;5033291;28;20460;-65
2021/06/19 01:35:06;;;;;;;5.50;2.73;;;24.20;96.50;;;;;;5033726;28;20408;-65
2021/06/19 01:37:31;;;;;;;4.30;2.63;;;24.20;97.30;;;;;;5032837;28;20429;-65
2021/06/19 01:40:11;;;;;;;6.30;2.83;;;24.00;98.20;;;;;;5033289;28;20549;-65
2021/06/19 01:42:42;;;;;;;3.70;2.73;;;23.80;98.50;;;;;;5033136;28;20242;-66
2021/06/19 01:45:16;;;;;;;3.13;2.83;;;23.60;99.90;;;;;;5033410;28;20416;-65
2021/06/19 01:47:43;;;;;;;6.20;2.93;;;23.50;99.80;;;;;;5032757;28;20456;-66
2021/06/19 01:50:14;;;;;;;5.20;3.70;;;23.30;99.90;;;;;;5033479;28;20846;-65
2021/06/19 01:52:40;;;;;;;4.10;2.57;;;23.20;99.90;;;;;;5032140;28;20453;-65
2021/06/19 01:55:07;;;;;;;3.83;3.50;;;23.20;99.90;;;;;;5033517;28;20426;-65
2021/06/19 01:57:33;;;;;;;5.90;2.97;;;23.10;99.90;;;;;;5032268;28;20511;-64
2021/06/19 02:00:05;;;;;;;4.77;3.30;;;23.00;99.90;;;;;;5033169;28;20444;-65
2021/06/19 02:02:31;;;;;;;4.13;2.93;;;22.90;99.90;;;;;;5032987;28;20513;-64
2021/06/19 02:04:57;;;;;;;4.30;3.23;;;22.80;99.90;;;;;;5033401;28;20922;-65
2021/06/19 02:07:22;;;;;;;3.63;2.73;;;22.80;99.90;;;;;;5032476;28;20460;-65
2021/06/19 02:09:48;;;;;;;3.50;3.00;;;22.80;99.90;;;;;;5032977;28;20205;-66
2021/06/19 02:12:14;;;;;;;2.90;2.70;;;22.80;99.90;;;;;;5035205;28;20199;-65
2021/06/19 02:14:40;;;;;;;4.87;3.00;;;22.80;99.90;;;;;;5037269;28;20173;-65
2021/06/19 02:17:05;;;;;;;5.23;2.20;;;22.90;99.90;;;;;;5036903;28;20783;-65
2021/06/19 02:19:31;;;;;;;5.57;2.93;;;22.90;99.90;;;;;;5036917;28;20186;-65
2021/06/19 02:21:56;;;;;;;3.67;3.17;;;22.90;99.90;;;;;;5037001;28;20175;-63
2021/06/19 02:24:22;;;;;;;3.60;3.30;;;23.00;99.90;;;;;;5037481;28;20174;-65
2021/06/19 02:26:48;;;;;;;4.30;2.90;;;23.00;99.90;;;;;;5036233;28;20181;-65
2021/06/19 02:29:14;;;;;;;6.20;3.50;;;23.00;99.90;;;;;;5036681;28;20233;-65
2021/06/19 02:31:39;;;;;;;4.07;3.03;;;23.00;99.90;;;;;;5036707;28;20803;-65
2021/06/19 02:34:05;;;;;;;5.83;3.27;;;22.90;99.90;;;;;;5035049;28;20181;-64
2021/06/19 02:36:31;;;;;;;5.20;3.23;;;22.80;99.90;;;;;;5036579;28;20541;-65
2021/06/19 02:38:56;;;;;;;4.03;3.73;;;22.80;99.90;;;;;;5036447;28;20189;-65
2021/06/19 02:41:22;;;;;;;6.87;3.47;;;22.80;99.90;;;;;;5036825;28;20166;-65
2021/06/19 02:43:48;;;;;;;5.20;3.53;;;22.70;99.90;;;;;;5036389;28;20209;-66
2021/06/19 02:46:14;;;;;;;5.63;3.23;;;22.70;99.90;;;;;;5036822;28;20182;-65
2021/06/19 02:48:40;;;;;;;5.20;4.10;;;22.70;99.90;;;;;;5035840;28;20432;-65
2021/06/19 02:51:06;;;;;;;5.00;3.37;;;22.60;99.90;;;;;;5036008;28;20178;-66
2021/06/19 02:53:32;;;;;;;6.00;3.70;;;22.60;99.90;;;;;;5036604;28;20479;-65
2021/06/19 02:55:58;;;;;;;5.50;3.33;;;22.50;99.90;;;;;;5036199;28;20181;-65
2021/06/19 02:58:24;;;;;;;4.93;2.73;;;22.40;99.90;;;;;;5035822;28;20388;-66
2021/06/19 03:00:50;;;;;;;5.43;3.73;;;22.40;99.90;;;;;;5035710;28;20423;-66
2021/06/19 03:03:16;;;;;;;7.47;3.77;;;22.30;99.90;;;;;;5035876;28;20437;-64
2021/06/19 03:05:42;;;;;;;5.67;3.10;;;22.30;99.90;;;;;;5036487;28;20405;-66
2021/06/19 03:08:08;;;;;;;5.00;3.53;;;22.20;99.90;;;;;;5034515;28;20170;-64
2021/06/19 03:10:36;;;;;;;5.63;3.30;;;22.20;99.90;;;;;;5035330;28;20193;-66
2021/06/19 03:13:03;;;;;;;4.83;3.50;;;22.20;99.90;;;;;;5034738;28;20457;-67
2021/06/19 03:15:29;;;;;;;5.43;4.00;;;22.20;99.90;;;;;;5036015;28;20787;-66
2021/06/19 03:17:55;;;;;;;5.00;3.53;;;22.20;99.90;;;;;;5035422;28;20428;-67
2021/06/19 03:20:21;;;;;;;7.00;3.67;;;22.20;99.90;;;;;;5035790;28;20719;-66
2021/06/19 03:22:51;;;;;;;3.93;3.63;;;22.10;99.90;;;;;;5035396;28;20487;-65
2021/06/19 03:25:40;;;;;;;3.80;3.47;;;22.00;99.90;;;;;;5035313;28;20425;-66
2021/06/19 03:28:06;;;;;;;4.13;3.70;;;22.10;99.90;;;;;;5035426;28;20487;-65
2021/06/19 03:30:34;;;;;;;16.03;8.53;;;22.10;99.90;;;;;;5035478;28;20512;-65
2021/06/19 03:33:01;;;;;;;10.00;4.10;;;22.00;99.90;;;;;;5035470;28;20491;-65
2021/06/19 03:35:27;;;;;;;4.50;3.80;;;22.00;99.90;;;;;;5035773;28;20413;-65
2021/06/19 03:37:54;;;;;;;5.40;4.03;;;22.00;99.90;;;;;;5034933;28;20508;-66
2021/06/19 03:40:21;;;;;;;7.87;6.00;;;22.00;99.90;;;;;;5034925;28;20440;-66
2021/06/19 03:42:49;;;;;;;4.87;4.47;;;22.00;99.90;;;;;;5035297;28;20463;-66
2021/06/19 03:45:16;;;;;;;6.27;4.37;;;22.00;99.90;;;;;;5035896;28;20818;-66
2021/06/19 03:47:43;;;;;;;5.47;4.37;;;21.90;99.90;;;;;;5034815;28;20403;-65
2021/06/19 03:50:14;;;;;;;8.03;6.50;;;21.90;99.90;;;;;;5035439;28;20444;-66
2021/06/19 03:52:40;;;;;;;9.50;5.43;;;21.90;99.90;;;;;;5035036;28;20452;-68
2021/06/19 03:55:06;;;;;;;7.40;4.10;;;21.90;99.90;;;;;;5034909;28;20759;-66
2021/06/19 03:57:33;;;;;;;4.80;4.30;;;21.90;99.90;;;;;;5034072;28;20922;-65
2021/06/19 03:59:59;;;;;;;5.37;3.67;;;21.90;99.90;;;;;;5035206;28;20436;-65
2021/06/19 04:02:26;;;;;;;6.10;4.90;;;21.90;99.90;;;;;;5034467;28;20425;-65
2021/06/19 04:04:52;;;;;;;10.63;3.80;;;21.90;99.90;;;;;;5035281;28;20491;-65
2021/06/19 04:07:19;;;;;;;5.03;3.93;;;21.90;99.90;;;;;;5034412;28;20460;-65
2021/06/19 04:09:49;;;;;;;6.20;5.07;;;21.90;99.90;;;;;;5035018;28;20213;-65
2021/06/19 04:12:16;;;;;;;5.70;5.13;;;21.90;99.90;;;;;;5034416;28;20472;-65
2021/06/19 04:14:42;;;;;;;7.53;4.20;;;21.90;99.90;;;;;;5034651;28;20428;-66
2021/06/19 04:17:09;;;;;;;5.70;3.97;;;22.00;99.90;;;;;;5034468;28;20416;-65
2021/06/19 04:19:37;;;;;;;4.63;4.10;;;22.10;99.90;;;;;;5034780;28;20428;-64
2021/06/19 04:22:03;;;;;;;7.23;5.93;;;22.20;99.90;;;;;;5033352;28;20429;-66
2021/06/19 04:24:29;;;;;;;7.07;5.60;;;22.20;99.90;;;;;;5034719;28;20855;-65
2021/06/19 04:26:54;;;;;;;3.30;3.10;;;22.30;99.90;;;;;;5034880;28;20512;-65
2021/06/19 04:29:20;;;;;;;5.60;5.00;;;22.30;99.90;;;;;;5033963;28;20225;-64
2021/06/19 04:31:46;;;;;;;5.87;3.83;;;22.40;99.90;;;;;;5034705;28;20541;-65
2021/06/19 04:34:11;;;;;;;3.80;3.50;;;22.40;99.90;;;;;;5033599;28;20178;-65
2021/06/19 04:36:37;;;;;;;10.20;4.10;;;22.50;99.90;;;;;;5033884;28;20183;-65
2021/06/19 04:39:03;;;;;;;4.00;3.70;;;22.50;99.90;;;;;;5033997;28;20201;-65
2021/06/19 04:41:33;;;;;;;7.47;3.50;;;22.50;99.90;;;;;;5034654;28;20179;-65
2021/06/19 04:46:28;;;;;;;5.43;4.30;;;22.40;99.90;;;;;;5034539;28;20405;-67
2021/06/19 04:48:53;;;;;;;5.80;4.63;;;22.40;99.90;;;;;;5031840;28;20524;-66
2021/06/19 04:51:19;;;;;;;4.97;4.00;;;22.40;99.90;;;;;;5034262;28;20610;-65
2021/06/19 04:53:45;;;;;;;8.57;3.93;;;22.50;99.90;;;;;;5034013;28;20217;-66
2021/06/19 04:56:11;;;;;;;7.20;3.27;;;22.50;99.90;;;;;;5034342;28;20432;-66
2021/06/19 04:58:37;;;;;;;5.90;4.20;;;22.60;99.90;;;;;;5033273;28;20272;-65
2021/06/19 05:01:03;;;;;;;3.60;3.17;;;22.70;99.90;;;;;;5034173;28;20167;-66
2021/06/19 05:03:29;;;;;;;8.83;4.17;;;22.80;99.90;;;;;;5033904;28;20795;-65
2021/06/19 05:05:55;;;;;;;5.60;3.50;;;23.00;99.90;;;;;;5033707;28;20418;-65
2021/06/19 05:08:20;;;;;;;3.60;3.30;;;23.10;99.90;;;;;;5033466;28;20835;-65
2021/06/19 05:10:46;;;;;;;6.83;3.97;;;23.20;99.90;;;;;;5033925;28;20603;-66
2021/06/19 05:13:12;;;;;;;5.87;3.43;;;23.40;99.90;;;;;;5033654;28;20197;-65
2021/06/19 05:15:38;;;;;;;4.00;3.50;;;23.50;99.90;;;;;;5033573;28;20419;-67
2021/06/19 05:18:03;;;;;;;7.23;3.60;;;23.70;99.90;;;;;;5033278;28;20277;-66
2021/06/19 05:20:31;;;;;;;8.43;4.27;;;23.80;99.90;;;;;;5032096;28;20212;-65
2021/06/19 05:22:58;;;;;;;4.50;3.97;;;24.00;99.90;;;;;;5033463;28;20186;-66
2021/06/19 05:25:24;;;;;;;3.70;3.20;;;24.30;99.90;;;;;;5014058;28;20387;-66
2021/06/19 05:27:50;;;;;;;7.50;3.30;;;24.50;99.90;;;;;;5015060;28;20499;-67
2021/06/19 05:30:16;;;;;;;4.07;3.67;;;24.60;99.90;;;;;;5033668;28;20528;-64
2021/06/19 05:32:42;;;;;;;9.90;4.50;;;24.70;99.90;;;;;;5033457;28;20238;-65
2021/06/19 05:35:08;;;;;;;3.57;3.37;;;24.80;99.90;;;;;;5033597;28;20448;-65
2021/06/19 05:37:34;;;;;;;5.63;4.37;;;24.90;99.90;;;;;;5032949;28;20185;-65
2021/06/19 05:39:59;;;;;;;4.87;4.13;;;25.10;99.90;;;;;;5033394;28;20432;-65
2021/06/19 05:42:25;;;;;;;5.30;4.73;;;25.30;99.90;;;;;;5033326;28;20193;-66
2021/06/19 05:44:51;;;;;;;4.73;4.10;;;25.60;99.90;;;;;;5033324;28;20162;-66
2021/06/19 05:47:16;;;;;;;4.23;3.83;;;25.90;99.90;;;;;;5032462;28;20178;-66
2021/06/19 05:49:42;;;;;;;4.13;3.80;;;26.30;99.90;;;;;;5033059;28;20549;-65
2021/06/19 05:52:08;;;;;;;4.70;3.07;;;26.70;99.90;;;;;;5033016;28;20603;-66
2021/06/19 05:54:36;;;;;;;4.40;3.50;;;27.00;99.90;;;;;;5033458;28;20168;-67
2021/06/19 05:57:05;;;;;;;4.83;3.83;;;27.20;99.00;;;;;;5031322;28;20258;-66
2021/06/19 05:59:31;;;;;;;6.53;3.30;;;27.50;98.30;;;;;;5031160;28;20443;-65
2021/06/19 06:01:57;;;;;;;4.30;3.50;;;27.70;97.60;;;;;;5031615;28;20934;-65
2021/06/19 06:04:23;;;;;;;7.37;4.93;;;27.80;97.00;;;;;;5032600;28;20378;-65
2021/06/19 06:06:48;;;;;;;6.00;4.20;;;27.90;96.60;;;;;;5032285;28;20702;-66
2021/06/19 06:09:14;;;;;;;5.10;4.10;;;28.00;96.60;;;;;;5032556;28;20680;-64
2021/06/19 06:11:40;;;;;;;5.23;3.50;;;28.10;96.10;;;;;;5032992;28;20200;-64
2021/06/19 06:14:08;;;;;;;5.30;4.17;;;28.10;96.00;;;;;;5032550;28;20200;-65
2021/06/19 06:16:35;;;;;;;4.60;3.77;;;28.10;96.20;;;;;;5032611;28;20184;-64
2021/06/19 06:19:01;;;;;;;4.23;3.70;;;28.00;96.00;;;;;;5032354;28;20428;-65
2021/06/19 06:21:27;;;;;;;4.80;4.10;;;28.00;96.00;;;;;;5030897;28;20762;-66
2021/06/19 06:23:52;;;;;;;4.70;3.73;;;27.90;96.90;;;;;;5032054;28;20634;-65
2021/06/19 06:26:18;;;;;;;5.80;4.47;;;27.70;97.20;;;;;;5031412;28;20638;-64
2021/06/19 06:28:44;;;;;;;6.77;5.80;;;27.50;96.90;;;;;;5032040;28;20270;-64
2021/06/19 06:31:09;;;;;;;7.13;4.63;;;27.40;97.00;;;;;;5032261;28;20180;-66
2021/06/19 06:33:35;;;;;;;8.90;4.30;;;27.30;97.90;;;;;;5032995;28;20209;-67
2021/06/19 06:36:01;;;;;;;5.93;4.73;;;27.20;97.30;;;;;;5032137;28;20206;-67
2021/06/19 06:38:27;;;;;;;7.10;5.67;;;27.30;97.50;;;;;;5032112;28;20211;-67
2021/06/19 06:40:52;;;;;;;4.37;3.90;;;27.30;97.20;;;;;;5032509;28;20428;-67
2021/06/19 06:43:18;;;;;;;7.80;4.23;;;27.40;97.00;;;;;;5031647;28;20664;-67
2021/06/19 06:45:44;;;;;;;5.10;4.33;;;27.40;97.30;;;;;;5032562;28;20189;-66
2021/06/19 06:48:09;;;;;;;4.37;4.07;;;27.40;97.90;;;;;;5032262;28;20183;-66
2021/06/19 06:50:36;;;;;;;9.20;3.60;;;27.40;97.30;;;;;;5032285;28;20644;-65
2021/06/19 06:53:01;;;;;;;4.70;4.10;;;27.50;97.30;;;;;;5032730;28;20299;-64
2021/06/19 06:55:27;;;;;;;5.10;4.10;;;27.70;97.60;;;;;;5032430;28;20467;-64
2021/06/19 06:57:53;;;;;;;3.90;3.60;;;27.90;97.60;;;;;;5013166;28;20182;-66
2021/06/19 07:00:19;;;;;;;3.63;3.33;;;28.20;97.00;;;;;;5016737;28;20198;-67
2021/06/19 07:02:45;;;;;;;4.60;4.00;;;28.50;96.10;;;;;;5034911;28;20185;-65
2021/06/19 07:05:11;;;;;;;5.10;3.80;;;28.50;95.40;;;;;;5035628;28;20425;-64
2021/06/19 07:07:38;;;;;;;3.70;3.40;;;28.50;95.50;;;;;;5033660;28;20236;-65
2021/06/19 07:10:06;;;;;;;3.80;3.50;;;28.60;95.70;;;;;;5035255;28;20536;-65
2021/06/19 07:12:32;;;;;;;6.73;4.03;;;28.60;95.80;;;;;;5035702;28;20456;-64
2021/06/19 07:14:58;;;;;;;4.83;3.87;;;28.70;95.10;;;;;;5035967;28;20506;-67
2021/06/19 07:17:23;;;;;;;6.80;4.30;;;28.70;95.40;;;;;;5035374;28;20177;-63
2021/06/19 07:19:49;;;;;;;5.60;4.60;;;28.90;95.40;;;;;;5035853;28;20281;-65
2021/06/19 07:22:15;;;;;;;7.53;4.20;;;29.10;94.90;;;;;;5035332;28;20176;-66
2021/06/19 07:24:41;;;;;;;5.13;4.43;;;29.30;94.60;;;;;;5035914;28;20174;-64
2021/06/19 07:27:08;;;;;;;5.33;4.60;;;29.40;93.50;;;;;;5035565;28;20200;-67
2021/06/19 07:29:33;;;;;;;4.83;4.30;;;29.70;93.00;;;;;;5036009;28;20417;-63
2021/06/19 07:31:59;;;;;;;4.57;4.00;;;30.30;92.50;;;;;;5035642;28;20932;-64
2021/06/19 07:34:27;;;;;;;5.07;4.10;;;31.00;91.10;;;;;;5035908;28;20181;-64
2021/06/19 07:36:53;;;;;;;7.60;4.10;;;31.80;90.10;;;;;;5035193;28;20508;-67
2021/06/19 07:39:18;;;;;;;4.33;4.03;;;32.80;85.90;;;;;;5035227;28;20457;-64
2021/06/19 07:41:44;;;;;;;4.77;4.37;;;33.60;82.30;;;;;;5035343;28;20407;-67
2021/06/19 07:44:11;;;;;;;3.90;3.60;;;34.30;80.40;;;;;;5035292;28;20178;-64
2021/06/19 07:46:37;;;;;;;4.43;4.13;;;35.20;77.70;;;;;;5035075;28;20178;-66
2021/06/19 07:49:03;;;;;;;4.57;4.17;;;36.20;72.50;;;;;;5035222;28;20527;-65
2021/06/19 07:51:29;;;;;;;5.03;4.63;;;36.90;69.50;;;;;;5035277;28;20186;-67
2021/06/19 07:53:55;;;;;;;6.30;5.50;;;37.30;69.10;;;;;;5035507;28;20446;-66
2021/06/19 07:56:21;;;;;;;5.30;4.90;;;37.70;66.10;;;;;;5035357;28;20429;-65
2021/06/19 07:58:47;;;;;;;5.97;5.37;;;38.10;65.20;;;;;;5034680;28;20277;-64
2021/06/19 08:01:12;;;;;;;4.47;4.17;;;38.40;61.60;;;;;;5034761;28;20181;-65
2021/06/19 08:03:38;;;;;;;5.03;4.53;;;39.10;60.80;;;;;;5035083;28;20264;-67
2021/06/19 08:06:04;;;;;;;5.37;4.97;;;39.90;59.10;;;;;;5035346;28;20167;-66
2021/06/19 08:08:29;;;;;;;5.10;4.63;;;40.30;58.40;;;;;;5032960;28;20248;-67
2021/06/19 08:10:55;;;;;;;4.87;4.50;;;40.60;57.80;;;;;;5015550;28;20684;-67
2021/06/19 08:13:21;;;;;;;4.80;4.40;;;40.80;56.80;;;;;;5015230;28;20203;-65
2021/06/19 08:15:46;;;;;;;5.40;4.97;;;41.10;55.70;;;;;;5049388;28;20174;-65
2021/06/19 08:18:12;;;;;;;6.73;6.13;;;41.50;55.20;;;;;;5034430;28;20175;-66
2021/06/19 08:20:38;;;;;;;5.53;5.03;;;41.90;53.40;;;;;;5034718;28;20182;-68
2021/06/19 08:23:04;;;;;;;5.33;4.90;;;42.10;53.60;;;;;;5035002;28;20266;-67
2021/06/19 08:25:30;;;;;;;6.27;5.07;;;41.80;53.60;;;;;;5034573;28;20568;-65
2021/06/19 08:27:56;;;;;;;7.13;5.60;;;41.40;53.30;;;;;;5034016;28;20923;-66
2021/06/19 08:30:22;;;;;;;7.20;5.40;;;41.20;53.80;;;;;;5034633;28;20445;-65
2021/06/19 08:32:48;;;;;;;7.30;6.70;;;41.00;53.20;;;;;;5034430;28;20794;-68
2021/06/19 08:35:14;;;;;;;6.37;5.83;;;40.80;53.40;;;;;;5034534;28;20171;-63
2021/06/19 08:37:40;;;;;;;7.23;5.00;;;40.70;53.60;;;;;;5033862;28;20220;-66
2021/06/19 08:40:07;;;;;;;6.17;5.67;;;40.40;53.90;;;;;;5034485;28;20421;-66
2021/06/19 08:42:33;;;;;;;5.40;5.00;;;40.30;54.10;;;;;;5034218;28;20650;-68
2021/06/19 08:44:59;;;;;;;5.87;5.40;;;40.60;53.40;;;;;;5034630;28;20420;-67
2021/06/19 08:47:26;;;;;;;6.30;5.70;;;40.90;53.10;;;;;;5034083;28;20733;-67
2021/06/19 08:49:54;;;;;;;6.03;5.53;;;41.00;52.30;;;;;;5034112;28;20441;-63
2021/06/19 08:52:21;;;;;;;6.10;5.67;;;41.00;53.20;;;;;;5033864;28;20923;-65
2021/06/19 08:54:47;;;;;;;6.47;5.93;;;41.20;52.10;;;;;;5033896;28;20776;-65
2021/06/19 08:57:13;;;;;;;6.80;5.50;;;40.90;52.70;;;;;;5033844;28;20409;-64
2021/06/19 08:59:46;;;;;;;5.90;5.40;;;40.90;52.20;;;;;;5033865;28;20603;-64
2021/06/19 09:02:11;;;;;;;6.23;5.53;;;40.60;51.80;;;;;;5034081;28;20457;-65
2021/06/19 09:05:00;;;;;;;5.50;5.10;;;40.20;51.30;;;;;;5032482;28;20443;-67
2021/06/19 09:07:40;;;;;;;5.70;5.30;;;40.20;50.70;;;;;;5033599;28;20174;-64
2021/06/19 09:10:31;;;;;;;6.03;5.53;;;40.50;51.30;;;;;;5033842;28;20555;-64
2021/06/19 09:13:09;;;;;;;6.00;5.50;;;40.50;51.60;;;;;;5016090;28;20519;-66
2021/06/19 09:15:43;;;;;;;6.57;5.00;;;40.60;51.90;;;;;;5034109;28;20475;-67
2021/06/19 09:18:15;;;;;;;5.60;5.10;;;40.80;51.20;;;;;;5031847;28;20775;-67
2021/06/19 09:20:49;;;;;;;6.43;5.83;;;41.00;50.30;;;;;;5033157;28;20432;-65
2021/06/19 09:23:16;;;;;;;5.93;5.50;;;41.10;49.70;;;;;;5033477;28;20542;-66
2021/06/19 09:25:42;;;;;;;5.97;5.57;;;40.80;50.00;;;;;;5033799;28;20767;-67
2021/06/19 09:28:09;;;;;;;5.90;5.43;;;40.80;50.00;;;;;;5033106;28;20432;-66
2021/06/19 09:30:36;;;;;;;6.87;6.33;;;40.60;49.40;;;;;;5033253;28;20240;-68
2021/06/19 09:33:05;;;;;;;4.93;4.60;;;40.30;50.70;;;;;;5033295;28;20771;-66
2021/06/19 09:35:33;;;;;;;7.43;6.00;;;40.20;50.50;;;;;;5033033;28;20428;-66
2021/06/19 09:38:04;;;;;;;6.80;6.20;;;40.50;50.50;;;;;;5032816;28;20478;-65
2021/06/19 09:40:49;;;;;;;5.97;5.47;;;40.80;50.60;;;;;;5033615;28;20421;-66
2021/06/19 09:43:29;;;;;;;6.07;5.57;;;41.10;49.60;;;;;;5031728;28;20472;-64
2021/06/19 09:46:11;;;;;;;5.67;5.27;;;41.40;49.70;;;;;;5032278;28;20819;-66
2021/06/19 09:48:41;;;;;;;7.50;6.63;;;41.30;49.40;;;;;;5032445;28;20444;-69
2021/06/19 09:51:12;;;;;;;6.60;6.10;;;41.60;51.10;;;;;;5033432;28;20448;-64
2021/06/19 09:53:40;;;;;;;6.27;5.73;;;42.00;49.60;;;;;;5033225;28;20489;-66
2021/06/19 09:56:08;;;;;;;5.83;5.40;;;42.50;48.80;;;;;;5033276;28;20417;-67
2021/06/19 09:58:57;;;;;;;6.07;5.67;;;42.50;47.90;;;;;;5031288;28;20444;-67
2021/06/19 10:01:43;;;;;;;5.67;5.33;;;42.20;47.70;;;;;;5032960;28;20432;-67
2021/06/19 10:04:09;;;;;;;6.83;6.30;;;41.80;48.40;;;;;;5032671;28;20823;-64
2021/06/19 10:06:36;;;;;;;6.47;5.87;;;41.60;48.90;;;;;;5032729;28;20424;-67
2021/06/19 10:09:03;;;;;;;5.80;5.40;;;41.50;48.40;;;;;;5032531;28;20436;-65
2021/06/19 10:11:29;;;;;;;6.73;6.10;;;41.30;48.20;;;;;;5032772;28;20461;-64
2021/06/19 10:13:57;;;;;;;5.40;5.10;;;41.40;47.70;;;;;;5031881;28;20817;-67
2021/06/19 10:16:24;;;;;;;5.70;5.10;;;41.00;47.70;;;;;;5032841;28;20471;-64
2021/06/19 10:18:52;;;;;;;5.57;5.17;;;41.00;48.00;;;;;;5032645;28;20444;-65
2021/06/19 10:21:18;;;;;;;7.67;5.60;;;41.40;47.50;;;;;;5032954;28;20776;-63
2021/06/19 10:23:44;;;;;;;5.93;5.53;;;41.70;46.80;;;;;;5032674;28;20460;-66
2021/06/19 10:26:10;;;;;;;6.33;5.83;;;41.80;47.70;;;;;;5033120;28;20409;-66
2021/06/19 10:28:47;;;;;;;6.30;5.90;;;41.60;48.30;;;;;;5032058;28;20206;-65
2021/06/19 10:31:17;;;;;;;6.20;5.57;;;41.30;48.70;;;;;;5033219;28;20430;-66
2021/06/19 10:33:44;;;;;;;6.53;5.17;;;41.00;49.90;;;;;;5034542;28;20934;-66
2021/06/19 10:36:11;;;;;;;5.83;5.43;;;40.80;48.80;;;;;;5036610;28;20436;-67
2021/06/19 10:38:53;;;;;;;6.50;6.00;;;40.70;48.50;;;;;;5036000;28;20981;-68
2021/06/19 10:41:43;;;;;;;5.93;5.10;;;40.30;48.70;;;;;;5036538;28;20432;-66
2021/06/19 10:44:09;;;;;;;5.40;5.00;;;40.00;48.50;;;;;;5036653;28;20503;-66
2021/06/19 10:46:39;;;;;;;6.20;5.80;;;39.50;49.50;;;;;;5036095;28;20520;-67
2021/06/19 10:49:20;;;;;;;5.50;5.00;;;39.00;49.80;;;;;;5035908;28;20206;-65
2021/06/19 10:51:47;;;;;;;4.93;4.63;;;38.60;50.00;;;;;;5036351;28;20424;-68
2021/06/19 10:54:25;;;;;;;7.07;5.00;;;38.50;50.20;;;;;;5036745;28;20964;-65
2021/06/19 10:56:54;;;;;;;6.27;5.17;;;38.40;50.10;;;;;;5036003;28;20437;-65
2021/06/19 10:59:32;;;;;;;6.17;5.00;;;38.20;51.00;;;;;;5036016;28;20429;-65
2021/06/19 11:01:59;;;;;;;5.20;4.77;;;38.00;51.60;;;;;;5035719;28;20498;-66
2021/06/19 11:07:07;;;;;;;6.90;5.30;;;37.50;52.00;;;;;;5036060;28;20974;-68
2021/06/19 11:09:41;;;;;;;7.30;4.83;;;37.10;51.50;;;;;;5035951;28;20948;-66
2021/06/19 11:12:28;;;;;;;5.93;5.33;;;36.70;51.30;;;;;;5035992;28;20456;-66
2021/06/19 11:14:55;;;;;;;4.90;4.50;;;36.10;52.90;;;;;;5035766;28;20794;-66
2021/06/19 11:17:21;;;;;;;7.30;5.30;;;35.60;52.80;;;;;;5035571;28;20893;-66
2021/06/19 11:19:49;;;;;;;11.40;6.20;;;35.00;54.10;;;;;;5035718;28;20428;-67
2021/06/19 11:22:52;;;;;;;5.00;4.60;;;34.80;54.50;;;;;;5035717;28;20206;-65
2021/06/19 11:25:42;;;;;;;6.43;5.30;;;34.50;55.00;;;;;;5035879;28;20394;-65
2021/06/19 11:28:23;;;;;;;7.23;5.40;;;34.10;56.30;;;;;;5035138;28;20813;-64
2021/06/19 11:30:54;;;;;;;4.60;4.20;;;33.90;56.50;;;;;;5035662;28;20420;-66
2021/06/19 11:33:25;;;;;;;4.30;3.90;;;33.50;56.40;;;;;;5036042;28;20399;-64
2021/06/19 11:36:00;;;;;;;5.10;4.00;;;33.30;56.20;;;;;;5035339;28;20810;-65
2021/06/19 11:38:44;;;;;;;5.57;3.97;;;33.30;55.60;;;;;;5035315;28;20408;-65
2021/06/19 11:41:11;;;;;;;5.00;3.20;;;33.30;56.70;;;;;;5034826;28;20491;-65
2021/06/19 11:43:37;;;;;;;4.43;4.03;;;33.30;56.20;;;;;;5035045;28;20471;-64
2021/06/19 11:46:03;;;;;;;5.03;3.90;;;33.20;55.60;;;;;;5034969;28;20491;-65
2021/06/19 11:48:28;;;;;;;4.43;4.03;;;33.20;55.10;;;;;;5035154;28;20265;-65
2021/06/19 11:51:05;;;;;;;4.70;4.30;;;33.20;56.20;;;;;;5035370;28;20597;-64
2021/06/19 11:53:35;;;;;;;9.20;4.23;;;33.10;57.50;;;;;;5035569;28;20221;-64
2021/06/19 11:56:15;;;;;;;3.53;2.93;;;33.00;55.70;;;;;;5034849;28;20493;-65
2021/06/19 11:58:55;;;;;;;9.23;4.10;;;33.00;54.30;;;;;;5034988;28;20411;-65
2021/06/19 12:01:38;;;;;;;4.43;4.03;;;32.80;55.00;;;;;;5035087;28;20466;-64
2021/06/19 12:04:36;;;;;;;6.10;4.60;;;32.80;56.10;;;;;;5035201;28;20446;-67
2021/06/19 12:07:02;;;;;;;4.50;4.10;;;32.80;56.80;;;;;;5031461;28;20415;-66
2021/06/19 12:09:32;;;;;;;7.50;3.93;;;32.80;56.90;;;;;;5034408;28;20452;-65
2021/06/19 12:12:05;;;;;;;4.57;4.17;;;32.70;57.30;;;;;;5033673;28;20403;-64
2021/06/19 12:14:36;;;;;;;9.20;7.30;;;32.70;57.60;;;;;;5035084;28;20432;-65
2021/06/19 12:17:09;;;;;;;6.90;4.20;;;32.80;58.10;;;;;;5034451;28;20451;-65
2021/06/19 12:19:37;;;;;;;11.23;4.30;;;32.90;59.00;;;;;;5034348;28;20449;-64
2021/06/19 12:22:14;;;;;;;8.07;4.90;;;33.10;58.20;;;;;;5034424;28;20443;-65
2021/06/19 12:24:42;;;;;;;8.37;4.57;;;33.20;57.40;;;;;;5034725;28;20451;-65
2021/06/19 12:27:10;;;;;;;8.63;5.20;;;33.30;57.90;;;;;;5034179;28;20474;-63
2021/06/19 12:29:48;;;;;;;4.90;3.97;;;33.40;56.80;;;;;;5034481;28;20539;-66
2021/06/19 12:32:24;;;;;;;5.33;4.20;;;33.30;55.70;;;;;;5034459;28;20527;-65
2021/06/19 12:34:51;;;;;;;7.47;3.80;;;33.10;54.40;;;;;;5034825;28;20803;-64
2021/06/19 12:37:22;;;;;;;4.00;3.30;;;33.00;54.40;;;;;;5033840;28;20498;-65
2021/06/19 12:39:48;;;;;;;4.63;4.13;;;33.00;55.00;;;;;;5034240;28;20423;-67
2021/06/19 12:42:35;;;;;;;10.80;9.40;;;33.10;55.50;;;;;;5034252;28;20997;-66
2021/06/19 12:45:41;;;;;;;9.40;4.93;;;33.20;56.00;;;;;;5033342;28;20451;-65
2021/06/19 12:48:20;;;;;;;5.70;4.27;;;33.30;55.70;;;;;;5033542;28;20421;-67
2021/06/19 12:50:46;;;;;;;5.83;3.50;;;33.50;55.60;;;;;;5034664;28;20389;-65
2021/06/19 12:53:13;;;;;;;6.80;3.00;;;33.50;53.10;;;;;;5032980;28;20406;-64
2021/06/19 12:55:54;;;;;;;4.30;4.00;;;33.40;52.60;;;;;;5033155;28;20443;-67
2021/06/19 12:58:20;;;;;;;7.80;4.53;;;33.40;53.10;;;;;;5033362;28;20418;-67